sensor_id;sensor_type;location;lat;lon;timestamp;P1;durP1;ratioP1;P2;durP2;ratioP2
78686;SDS011;68002;52.310;6.990;2023-07-31T00:01:38;3.28;;;1.40;;
78686;SDS011;68002;52.310;6.990;2023-07-31T00:04:04;3.10;;;2.08;;
78686;SDS011;68002;52.310;6.990;2023-07-31T00:06:29;3.65;;;1.17;;
78686;SDS011;68002;52.310;6.990;2023-07-31T00:08:54;3.47;;;2.38;;
78686;SDS011;68002;52.310;6.990;2023-07-31T00:11:19;4.10;;;1.75;;
78686;SDS011;68002;52.310;6.990;2023-07-31T00:13:44;3.47;;;2.65;;
78686;SDS011;68002;52.310;6.990;2023-07-31T00:16:09;2.80;;;2.08;;
78686;SDS011;68002;52.310;6.990;2023-07-31T00:18:34;3.72;;;2.42;;
78686;SDS011;68002;52.310;6.990;2023-07-31T00:20:59;3.15;;;1.85;;
78686;SDS011;68002;52.310;6.990;2023-07-31T00:23:24;3.00;;;1.80;;
78686;SDS011;68002;52.310;6.990;2023-07-31T00:25:50;2.95;;;2.08;;
78686;SDS011;68002;52.310;6.990;2023-07-31T00:28:15;2.92;;;1.90;;
78686;SDS011;68002;52.310;6.990;2023-07-31T00:30:40;2.97;;;1.10;;
78686;SDS011;68002;52.310;6.990;2023-07-31T00:33:05;3.25;;;2.10;;
78686;SDS011;68002;52.310;6.990;2023-07-31T00:35:30;2.50;;;1.80;;
78686;SDS011;68002;52.310;6.990;2023-07-31T00:37:58;2.72;;;1.73;;
78686;SDS011;68002;52.310;6.990;2023-07-31T00:40:23;3.55;;;2.28;;
78686;SDS011;68002;52.310;6.990;2023-07-31T00:42:48;3.28;;;1.95;;
78686;SDS011;68002;52.310;6.990;2023-07-31T00:45:13;2.83;;;1.90;;
78686;SDS011;68002;52.310;6.990;2023-07-31T00:47:38;2.40;;;1.55;;
78686;SDS011;68002;52.310;6.990;2023-07-31T00:50:04;2.78;;;1.98;;
78686;SDS011;68002;52.310;6.990;2023-07-31T00:52:29;3.42;;;1.95;;
78686;SDS011;68002;52.310;6.990;2023-07-31T00:54:54;3.23;;;2.07;;
78686;SDS011;68002;52.310;6.990;2023-07-31T00:57:19;4.03;;;1.25;;
78686;SDS011;68002;52.310;6.990;2023-07-31T00:59:45;3.25;;;1.38;;
78686;SDS011;68002;52.310;6.990;2023-07-31T01:02:10;2.67;;;1.80;;
78686;SDS011;68002;52.310;6.990;2023-07-31T01:04:35;2.70;;;1.57;;
78686;SDS011;68002;52.310;6.990;2023-07-31T01:12:15;3.28;;;1.95;;
78686;SDS011;68002;52.310;6.990;2023-07-31T01:14:40;4.22;;;1.48;;
78686;SDS011;68002;52.310;6.990;2023-07-31T01:17:05;2.45;;;1.95;;
78686;SDS011;68002;52.310;6.990;2023-07-31T01:19:31;2.20;;;1.65;;
78686;SDS011;68002;52.310;6.990;2023-07-31T01:24:54;1.90;;;1.25;;
78686;SDS011;68002;52.310;6.990;2023-07-31T01:27:21;2.13;;;1.77;;
78686;SDS011;68002;52.310;6.990;2023-07-31T01:30:05;2.08;;;1.88;;
78686;SDS011;68002;52.310;6.990;2023-07-31T01:32:32;2.65;;;1.30;;
78686;SDS011;68002;52.310;6.990;2023-07-31T01:34:58;1.85;;;1.48;;
78686;SDS011;68002;52.310;6.990;2023-07-31T01:37:28;2.40;;;2.05;;
78686;SDS011;68002;52.310;6.990;2023-07-31T01:39:53;2.10;;;1.35;;
78686;SDS011;68002;52.310;6.990;2023-07-31T01:42:18;2.67;;;2.28;;
78686;SDS011;68002;52.310;6.990;2023-07-31T01:44:43;1.60;;;1.45;;
78686;SDS011;68002;52.310;6.990;2023-07-31T01:47:08;2.35;;;1.90;;
78686;SDS011;68002;52.310;6.990;2023-07-31T01:49:33;2.20;;;1.33;;
78686;SDS011;68002;52.310;6.990;2023-07-31T01:51:58;2.28;;;1.27;;
78686;SDS011;68002;52.310;6.990;2023-07-31T01:54:24;2.10;;;1.25;;
78686;SDS011;68002;52.310;6.990;2023-07-31T01:56:49;1.92;;;1.42;;
78686;SDS011;68002;52.310;6.990;2023-07-31T01:59:14;1.63;;;1.05;;
78686;SDS011;68002;52.310;6.990;2023-07-31T02:01:39;1.80;;;1.13;;
78686;SDS011;68002;52.310;6.990;2023-07-31T02:04:04;1.67;;;1.20;;
78686;SDS011;68002;52.310;6.990;2023-07-31T02:06:29;1.20;;;0.88;;
78686;SDS011;68002;52.310;6.990;2023-07-31T02:08:54;1.63;;;0.82;;
78686;SDS011;68002;52.310;6.990;2023-07-31T02:11:19;1.65;;;0.93;;
78686;SDS011;68002;52.310;6.990;2023-07-31T02:13:44;1.50;;;0.93;;
78686;SDS011;68002;52.310;6.990;2023-07-31T02:16:10;1.25;;;0.85;;
78686;SDS011;68002;52.310;6.990;2023-07-31T02:18:35;1.35;;;1.23;;
78686;SDS011;68002;52.310;6.990;2023-07-31T02:21:00;1.00;;;0.90;;
78686;SDS011;68002;52.310;6.990;2023-07-31T02:23:25;2.55;;;0.90;;
78686;SDS011;68002;52.310;6.990;2023-07-31T02:25:50;1.85;;;0.88;;
78686;SDS011;68002;52.310;6.990;2023-07-31T02:28:15;3.42;;;1.05;;
78686;SDS011;68002;52.310;6.990;2023-07-31T02:30:43;0.57;;;0.20;;
78686;SDS011;68002;52.310;6.990;2023-07-31T02:33:08;4.47;;;0.75;;
78686;SDS011;68002;52.310;6.990;2023-07-31T02:35:33;2.63;;;0.60;;
78686;SDS011;68002;52.310;6.990;2023-07-31T02:37:58;1.88;;;0.82;;
78686;SDS011;68002;52.310;6.990;2023-07-31T02:40:24;1.70;;;0.50;;
78686;SDS011;68002;52.310;6.990;2023-07-31T02:42:49;3.45;;;1.05;;
78686;SDS011;68002;52.310;6.990;2023-07-31T02:45:14;2.35;;;0.50;;
78686;SDS011;68002;52.310;6.990;2023-07-31T02:47:39;1.67;;;1.02;;
78686;SDS011;68002;52.310;6.990;2023-07-31T02:50:04;2.53;;;0.63;;
78686;SDS011;68002;52.310;6.990;2023-07-31T02:52:30;3.23;;;0.90;;
78686;SDS011;68002;52.310;6.990;2023-07-31T02:54:55;1.40;;;0.70;;
78686;SDS011;68002;52.310;6.990;2023-07-31T02:57:20;2.83;;;2.53;;
78686;SDS011;68002;52.310;6.990;2023-07-31T02:59:45;2.97;;;1.48;;
78686;SDS011;68002;52.310;6.990;2023-07-31T03:02:10;4.32;;;1.90;;
78686;SDS011;68002;52.310;6.990;2023-07-31T03:04:35;3.97;;;2.17;;
78686;SDS011;68002;52.310;6.990;2023-07-31T03:07:00;5.43;;;1.80;;
78686;SDS011;68002;52.310;6.990;2023-07-31T03:09:25;5.78;;;2.38;;
78686;SDS011;68002;52.310;6.990;2023-07-31T03:11:51;6.13;;;3.25;;
78686;SDS011;68002;52.310;6.990;2023-07-31T03:14:16;5.55;;;2.53;;
78686;SDS011;68002;52.310;6.990;2023-07-31T03:16:41;6.53;;;2.57;;
78686;SDS011;68002;52.310;6.990;2023-07-31T03:19:06;4.85;;;3.13;;
78686;SDS011;68002;52.310;6.990;2023-07-31T03:21:31;5.32;;;2.50;;
78686;SDS011;68002;52.310;6.990;2023-07-31T03:23:56;4.38;;;2.45;;
78686;SDS011;68002;52.310;6.990;2023-07-31T03:26:21;5.43;;;3.08;;
78686;SDS011;68002;52.310;6.990;2023-07-31T03:28:46;3.58;;;2.30;;
78686;SDS011;68002;52.310;6.990;2023-07-31T03:31:12;4.22;;;1.95;;
78686;SDS011;68002;52.310;6.990;2023-07-31T03:33:37;4.30;;;2.10;;
78686;SDS011;68002;52.310;6.990;2023-07-31T03:36:02;4.32;;;2.35;;
78686;SDS011;68002;52.310;6.990;2023-07-31T03:38:27;4.00;;;2.37;;
78686;SDS011;68002;52.310;6.990;2023-07-31T03:40:52;4.75;;;2.22;;
78686;SDS011;68002;52.310;6.990;2023-07-31T03:43:17;5.10;;;3.00;;
78686;SDS011;68002;52.310;6.990;2023-07-31T03:45:42;7.03;;;2.72;;
78686;SDS011;68002;52.310;6.990;2023-07-31T03:48:08;6.93;;;3.13;;
78686;SDS011;68002;52.310;6.990;2023-07-31T03:50:33;7.57;;;3.97;;
78686;SDS011;68002;52.310;6.990;2023-07-31T03:52:58;10.00;;;4.93;;
78686;SDS011;68002;52.310;6.990;2023-07-31T03:55:23;10.45;;;4.53;;
78686;SDS011;68002;52.310;6.990;2023-07-31T03:57:48;7.05;;;4.45;;
78686;SDS011;68002;52.310;6.990;2023-07-31T04:00:13;8.98;;;4.90;;
78686;SDS011;68002;52.310;6.990;2023-07-31T04:02:38;10.73;;;4.75;;
78686;SDS011;68002;52.310;6.990;2023-07-31T04:05:04;12.25;;;5.30;;
78686;SDS011;68002;52.310;6.990;2023-07-31T04:07:29;16.37;;;6.10;;
78686;SDS011;68002;52.310;6.990;2023-07-31T04:09:54;13.52;;;5.32;;
78686;SDS011;68002;52.310;6.990;2023-07-31T04:12:19;15.50;;;7.60;;
78686;SDS011;68002;52.310;6.990;2023-07-31T04:14:44;15.82;;;6.68;;
78686;SDS011;68002;52.310;6.990;2023-07-31T04:17:09;18.55;;;8.60;;
78686;SDS011;68002;52.310;6.990;2023-07-31T04:19:34;17.92;;;7.85;;
78686;SDS011;68002;52.310;6.990;2023-07-31T04:21:59;17.73;;;8.18;;
78686;SDS011;68002;52.310;6.990;2023-07-31T04:24:25;16.30;;;7.85;;
78686;SDS011;68002;52.310;6.990;2023-07-31T04:26:50;15.95;;;7.10;;
78686;SDS011;68002;52.310;6.990;2023-07-31T04:29:15;16.27;;;8.20;;
78686;SDS011;68002;52.310;6.990;2023-07-31T04:31:40;19.52;;;8.48;;
78686;SDS011;68002;52.310;6.990;2023-07-31T04:34:05;23.05;;;8.25;;
78686;SDS011;68002;52.310;6.990;2023-07-31T04:36:30;20.95;;;8.65;;
78686;SDS011;68002;52.310;6.990;2023-07-31T04:38:56;18.50;;;8.13;;
78686;SDS011;68002;52.310;6.990;2023-07-31T04:41:21;21.13;;;9.20;;
78686;SDS011;68002;52.310;6.990;2023-07-31T04:43:46;21.03;;;9.37;;
78686;SDS011;68002;52.310;6.990;2023-07-31T04:46:11;19.42;;;7.82;;
78686;SDS011;68002;52.310;6.990;2023-07-31T04:48:36;21.67;;;9.73;;
78686;SDS011;68002;52.310;6.990;2023-07-31T04:51:01;23.33;;;8.45;;
78686;SDS011;68002;52.310;6.990;2023-07-31T04:53:26;22.45;;;8.43;;
78686;SDS011;68002;52.310;6.990;2023-07-31T04:55:51;20.42;;;9.40;;
78686;SDS011;68002;52.310;6.990;2023-07-31T04:58:16;22.23;;;9.60;;
78686;SDS011;68002;52.310;6.990;2023-07-31T05:00:42;17.65;;;7.43;;
78686;SDS011;68002;52.310;6.990;2023-07-31T05:03:07;26.20;;;9.52;;
78686;SDS011;68002;52.310;6.990;2023-07-31T05:05:32;18.30;;;8.00;;
78686;SDS011;68002;52.310;6.990;2023-07-31T05:07:57;21.23;;;8.10;;
78686;SDS011;68002;52.310;6.990;2023-07-31T05:10:22;24.88;;;8.13;;
78686;SDS011;68002;52.310;6.990;2023-07-31T05:12:47;21.55;;;8.40;;
78686;SDS011;68002;52.310;6.990;2023-07-31T05:15:12;19.35;;;8.27;;
78686;SDS011;68002;52.310;6.990;2023-07-31T05:17:37;20.43;;;8.87;;
78686;SDS011;68002;52.310;6.990;2023-07-31T05:20:03;16.85;;;6.70;;
78686;SDS011;68002;52.310;6.990;2023-07-31T05:22:28;16.80;;;7.40;;
78686;SDS011;68002;52.310;6.990;2023-07-31T05:24:53;20.08;;;7.10;;
78686;SDS011;68002;52.310;6.990;2023-07-31T05:27:18;19.67;;;7.43;;
78686;SDS011;68002;52.310;6.990;2023-07-31T05:29:43;15.25;;;6.80;;
78686;SDS011;68002;52.310;6.990;2023-07-31T05:32:08;18.73;;;6.77;;
78686;SDS011;68002;52.310;6.990;2023-07-31T05:34:34;18.30;;;6.67;;
78686;SDS011;68002;52.310;6.990;2023-07-31T05:36:59;18.40;;;7.05;;
78686;SDS011;68002;52.310;6.990;2023-07-31T05:39:24;15.10;;;6.50;;
78686;SDS011;68002;52.310;6.990;2023-07-31T05:41:49;18.20;;;5.80;;
78686;SDS011;68002;52.310;6.990;2023-07-31T05:44:14;16.95;;;6.80;;
78686;SDS011;68002;52.310;6.990;2023-07-31T05:46:39;16.77;;;5.72;;
78686;SDS011;68002;52.310;6.990;2023-07-31T05:49:04;15.25;;;7.25;;
78686;SDS011;68002;52.310;6.990;2023-07-31T05:51:29;14.38;;;6.72;;
78686;SDS011;68002;52.310;6.990;2023-07-31T05:53:54;15.00;;;6.45;;
78686;SDS011;68002;52.310;6.990;2023-07-31T05:56:20;14.98;;;6.30;;
78686;SDS011;68002;52.310;6.990;2023-07-31T05:58:45;22.20;;;7.47;;
78686;SDS011;68002;52.310;6.990;2023-07-31T06:01:10;17.73;;;6.07;;
78686;SDS011;68002;52.310;6.990;2023-07-31T06:03:35;22.35;;;6.35;;
78686;SDS011;68002;52.310;6.990;2023-07-31T06:06:00;17.35;;;6.60;;
78686;SDS011;68002;52.310;6.990;2023-07-31T06:08:25;17.23;;;5.90;;
78686;SDS011;68002;52.310;6.990;2023-07-31T06:10:50;15.57;;;6.15;;
78686;SDS011;68002;52.310;6.990;2023-07-31T06:13:15;13.10;;;5.17;;
78686;SDS011;68002;52.310;6.990;2023-07-31T06:15:40;15.30;;;6.05;;
78686;SDS011;68002;52.310;6.990;2023-07-31T06:18:06;17.15;;;5.85;;
78686;SDS011;68002;52.310;6.990;2023-07-31T06:20:31;14.35;;;6.10;;
78686;SDS011;68002;52.310;6.990;2023-07-31T06:22:56;16.67;;;6.00;;
78686;SDS011;68002;52.310;6.990;2023-07-31T06:25:21;12.55;;;5.28;;
78686;SDS011;68002;52.310;6.990;2023-07-31T06:27:46;13.95;;;5.55;;
78686;SDS011;68002;52.310;6.990;2023-07-31T06:30:11;16.75;;;5.57;;
78686;SDS011;68002;52.310;6.990;2023-07-31T06:32:36;15.97;;;5.73;;
78686;SDS011;68002;52.310;6.990;2023-07-31T06:35:02;14.48;;;5.78;;
78686;SDS011;68002;52.310;6.990;2023-07-31T06:37:27;15.23;;;7.37;;
78686;SDS011;68002;52.310;6.990;2023-07-31T06:39:52;13.40;;;5.28;;
78686;SDS011;68002;52.310;6.990;2023-07-31T06:42:17;12.32;;;5.57;;
78686;SDS011;68002;52.310;6.990;2023-07-31T06:44:42;14.00;;;5.28;;
78686;SDS011;68002;52.310;6.990;2023-07-31T06:47:07;15.77;;;6.05;;
78686;SDS011;68002;52.310;6.990;2023-07-31T06:49:32;16.17;;;5.35;;
78686;SDS011;68002;52.310;6.990;2023-07-31T06:51:57;13.75;;;5.60;;
78686;SDS011;68002;52.310;6.990;2023-07-31T06:54:22;12.52;;;4.68;;
78686;SDS011;68002;52.310;6.990;2023-07-31T06:56:48;10.38;;;4.13;;
78686;SDS011;68002;52.310;6.990;2023-07-31T06:59:13;15.07;;;4.75;;
78686;SDS011;68002;52.310;6.990;2023-07-31T07:01:38;13.77;;;5.30;;
78686;SDS011;68002;52.310;6.990;2023-07-31T07:04:03;12.52;;;5.90;;
78686;SDS011;68002;52.310;6.990;2023-07-31T07:06:28;10.50;;;4.97;;
78686;SDS011;68002;52.310;6.990;2023-07-31T07:08:53;9.98;;;5.32;;
78686;SDS011;68002;52.310;6.990;2023-07-31T07:11:18;12.00;;;5.32;;
78686;SDS011;68002;52.310;6.990;2023-07-31T07:13:43;10.52;;;4.85;;
78686;SDS011;68002;52.310;6.990;2023-07-31T07:16:09;10.68;;;4.90;;
78686;SDS011;68002;52.310;6.990;2023-07-31T07:18:34;12.15;;;5.38;;
78686;SDS011;68002;52.310;6.990;2023-07-31T07:20:59;11.65;;;4.40;;
78686;SDS011;68002;52.310;6.990;2023-07-31T07:23:24;12.55;;;4.57;;
78686;SDS011;68002;52.310;6.990;2023-07-31T07:25:49;9.38;;;4.45;;
78686;SDS011;68002;52.310;6.990;2023-07-31T07:28:14;11.00;;;4.33;;
78686;SDS011;68002;52.310;6.990;2023-07-31T07:30:39;8.38;;;4.40;;
78686;SDS011;68002;52.310;6.990;2023-07-31T07:33:05;7.72;;;3.22;;
78686;SDS011;68002;52.310;6.990;2023-07-31T07:35:30;8.63;;;4.33;;
78686;SDS011;68002;52.310;6.990;2023-07-31T07:37:55;7.43;;;3.15;;
78686;SDS011;68002;52.310;6.990;2023-07-31T07:40:20;7.00;;;3.90;;
78686;SDS011;68002;52.310;6.990;2023-07-31T07:42:45;7.20;;;3.07;;
78686;SDS011;68002;52.310;6.990;2023-07-31T07:45:10;8.05;;;3.83;;
78686;SDS011;68002;52.310;6.990;2023-07-31T07:47:35;7.43;;;3.55;;
78686;SDS011;68002;52.310;6.990;2023-07-31T07:50:01;9.00;;;3.90;;
78686;SDS011;68002;52.310;6.990;2023-07-31T07:52:26;8.20;;;3.53;;
78686;SDS011;68002;52.310;6.990;2023-07-31T07:54:51;6.80;;;3.22;;
78686;SDS011;68002;52.310;6.990;2023-07-31T07:57:17;7.50;;;3.40;;
78686;SDS011;68002;52.310;6.990;2023-07-31T07:59:42;7.00;;;3.20;;
78686;SDS011;68002;52.310;6.990;2023-07-31T08:02:07;7.18;;;3.42;;
78686;SDS011;68002;52.310;6.990;2023-07-31T08:04:32;4.60;;;3.00;;
78686;SDS011;68002;52.310;6.990;2023-07-31T08:06:57;6.85;;;3.03;;
78686;SDS011;68002;52.310;6.990;2023-07-31T08:09:23;6.05;;;2.78;;
78686;SDS011;68002;52.310;6.990;2023-07-31T08:11:48;5.95;;;3.00;;
78686;SDS011;68002;52.310;6.990;2023-07-31T08:14:13;4.45;;;2.30;;
78686;SDS011;68002;52.310;6.990;2023-07-31T08:16:38;4.27;;;2.20;;
78686;SDS011;68002;52.310;6.990;2023-07-31T08:19:03;3.90;;;2.38;;
78686;SDS011;68002;52.310;6.990;2023-07-31T08:21:28;3.25;;;2.15;;
78686;SDS011;68002;52.310;6.990;2023-07-31T08:23:53;3.60;;;2.03;;
78686;SDS011;68002;52.310;6.990;2023-07-31T08:26:18;4.05;;;2.33;;
78686;SDS011;68002;52.310;6.990;2023-07-31T08:28:44;4.47;;;2.03;;
78686;SDS011;68002;52.310;6.990;2023-07-31T08:31:09;2.90;;;0.98;;
78686;SDS011;68002;52.310;6.990;2023-07-31T08:33:34;2.78;;;1.65;;
78686;SDS011;68002;52.310;6.990;2023-07-31T08:35:59;2.67;;;1.63;;
78686;SDS011;68002;52.310;6.990;2023-07-31T08:38:25;3.05;;;1.45;;
78686;SDS011;68002;52.310;6.990;2023-07-31T08:40:50;3.42;;;1.80;;
78686;SDS011;68002;52.310;6.990;2023-07-31T08:43:15;2.88;;;1.60;;
78686;SDS011;68002;52.310;6.990;2023-07-31T08:45:41;2.30;;;1.90;;
78686;SDS011;68002;52.310;6.990;2023-07-31T08:48:07;2.88;;;1.58;;
78686;SDS011;68002;52.310;6.990;2023-07-31T08:50:32;2.88;;;1.60;;
78686;SDS011;68002;52.310;6.990;2023-07-31T08:52:57;2.90;;;2.23;;
78686;SDS011;68002;52.310;6.990;2023-07-31T08:55:22;2.08;;;1.40;;
78686;SDS011;68002;52.310;6.990;2023-07-31T08:57:47;2.85;;;1.55;;
78686;SDS011;68002;52.310;6.990;2023-07-31T09:00:13;2.63;;;2.42;;
78686;SDS011;68002;52.310;6.990;2023-07-31T09:02:44;3.50;;;1.60;;
78686;SDS011;68002;52.310;6.990;2023-07-31T09:05:10;2.20;;;1.60;;
78686;SDS011;68002;52.310;6.990;2023-07-31T09:07:35;2.53;;;1.23;;
78686;SDS011;68002;52.310;6.990;2023-07-31T09:10:00;1.90;;;1.40;;
78686;SDS011;68002;52.310;6.990;2023-07-31T09:12:25;3.03;;;1.83;;
78686;SDS011;68002;52.310;6.990;2023-07-31T09:14:51;1.73;;;0.73;;
78686;SDS011;68002;52.310;6.990;2023-07-31T09:17:16;2.00;;;1.23;;
78686;SDS011;68002;52.310;6.990;2023-07-31T09:19:53;1.35;;;0.73;;
78686;SDS011;68002;52.310;6.990;2023-07-31T09:22:18;2.58;;;1.58;;
78686;SDS011;68002;52.310;6.990;2023-07-31T09:24:55;2.08;;;1.33;;
78686;SDS011;68002;52.310;6.990;2023-07-31T09:27:20;2.10;;;1.40;;
78686;SDS011;68002;52.310;6.990;2023-07-31T09:29:46;2.63;;;1.20;;
78686;SDS011;68002;52.310;6.990;2023-07-31T09:32:23;2.25;;;1.20;;
78686;SDS011;68002;52.310;6.990;2023-07-31T09:34:49;1.73;;;1.17;;
78686;SDS011;68002;52.310;6.990;2023-07-31T09:37:14;2.45;;;1.20;;
78686;SDS011;68002;52.310;6.990;2023-07-31T09:39:46;2.05;;;1.20;;
78686;SDS011;68002;52.310;6.990;2023-07-31T09:42:11;1.70;;;1.33;;
78686;SDS011;68002;52.310;6.990;2023-07-31T09:44:37;2.97;;;1.37;;
78686;SDS011;68002;52.310;6.990;2023-07-31T09:47:02;2.08;;;1.13;;
78686;SDS011;68002;52.310;6.990;2023-07-31T09:49:27;1.80;;;1.30;;
78686;SDS011;68002;52.310;6.990;2023-07-31T09:51:53;1.77;;;0.85;;
78686;SDS011;68002;52.310;6.990;2023-07-31T09:54:18;2.08;;;1.42;;
78686;SDS011;68002;52.310;6.990;2023-07-31T09:56:47;1.73;;;1.10;;
78686;SDS011;68002;52.310;6.990;2023-07-31T09:59:14;1.58;;;1.48;;
78686;SDS011;68002;52.310;6.990;2023-07-31T10:01:40;2.63;;;2.30;;
78686;SDS011;68002;52.310;6.990;2023-07-31T10:04:05;2.70;;;1.63;;
78686;SDS011;68002;52.310;6.990;2023-07-31T10:06:32;1.98;;;1.30;;
78686;SDS011;68002;52.310;6.990;2023-07-31T10:08:58;2.47;;;1.27;;
78686;SDS011;68002;52.310;6.990;2023-07-31T10:11:23;2.00;;;1.33;;
78686;SDS011;68002;52.310;6.990;2023-07-31T10:13:49;2.72;;;1.40;;
78686;SDS011;68002;52.310;6.990;2023-07-31T10:16:15;2.65;;;1.42;;
78686;SDS011;68002;52.310;6.990;2023-07-31T10:18:40;2.63;;;1.38;;
78686;SDS011;68002;52.310;6.990;2023-07-31T10:21:06;2.65;;;1.88;;
78686;SDS011;68002;52.310;6.990;2023-07-31T10:23:32;2.72;;;1.55;;
78686;SDS011;68002;52.310;6.990;2023-07-31T10:25:57;3.63;;;2.58;;
78686;SDS011;68002;52.310;6.990;2023-07-31T10:28:23;2.55;;;1.85;;
78686;SDS011;68002;52.310;6.990;2023-07-31T10:30:49;3.00;;;2.50;;
78686;SDS011;68002;52.310;6.990;2023-07-31T10:33:15;2.50;;;1.77;;
78686;SDS011;68002;52.310;6.990;2023-07-31T10:35:41;2.30;;;1.73;;
78686;SDS011;68002;52.310;6.990;2023-07-31T10:38:10;4.30;;;2.58;;
78686;SDS011;68002;52.310;6.990;2023-07-31T10:43:00;1.83;;;1.27;;
78686;SDS011;68002;52.310;6.990;2023-07-31T10:45:32;3.63;;;2.70;;
78686;SDS011;68002;52.310;6.990;2023-07-31T10:48:01;2.47;;;1.73;;
78686;SDS011;68002;52.310;6.990;2023-07-31T10:50:26;2.30;;;1.45;;
78686;SDS011;68002;52.310;6.990;2023-07-31T10:52:53;2.22;;;1.65;;
78686;SDS011;68002;52.310;6.990;2023-07-31T10:58:06;2.97;;;1.98;;
78686;SDS011;68002;52.310;6.990;2023-07-31T11:00:31;3.17;;;1.95;;
78686;SDS011;68002;52.310;6.990;2023-07-31T11:03:06;5.13;;;3.00;;
78686;SDS011;68002;52.310;6.990;2023-07-31T11:05:42;2.85;;;2.35;;
78686;SDS011;68002;52.310;6.990;2023-07-31T11:08:18;2.70;;;2.00;;
78686;SDS011;68002;52.310;6.990;2023-07-31T11:10:43;3.92;;;3.53;;
78686;SDS011;68002;52.310;6.990;2023-07-31T11:13:09;3.42;;;2.10;;
78686;SDS011;68002;52.310;6.990;2023-07-31T11:15:34;3.83;;;2.83;;
78686;SDS011;68002;52.310;6.990;2023-07-31T11:18:02;4.72;;;2.75;;
78686;SDS011;68002;52.310;6.990;2023-07-31T11:20:29;5.22;;;2.53;;
78686;SDS011;68002;52.310;6.990;2023-07-31T11:22:54;4.25;;;2.95;;
78686;SDS011;68002;52.310;6.990;2023-07-31T11:25:19;3.55;;;2.95;;
78686;SDS011;68002;52.310;6.990;2023-07-31T11:27:44;5.00;;;4.03;;
78686;SDS011;68002;52.310;6.990;2023-07-31T11:30:10;4.40;;;3.53;;
78686;SDS011;68002;52.310;6.990;2023-07-31T11:32:36;3.92;;;3.00;;
78686;SDS011;68002;52.310;6.990;2023-07-31T11:35:01;6.65;;;3.92;;
78686;SDS011;68002;52.310;6.990;2023-07-31T11:37:38;7.18;;;4.45;;
78686;SDS011;68002;52.310;6.990;2023-07-31T11:40:04;7.57;;;4.15;;
78686;SDS011;68002;52.310;6.990;2023-07-31T11:42:29;7.23;;;4.10;;
78686;SDS011;68002;52.310;6.990;2023-07-31T11:44:54;6.43;;;4.50;;
78686;SDS011;68002;52.310;6.990;2023-07-31T11:47:19;6.78;;;4.32;;
78686;SDS011;68002;52.310;6.990;2023-07-31T11:49:44;6.47;;;4.73;;
78686;SDS011;68002;52.310;6.990;2023-07-31T11:52:10;7.10;;;5.05;;
78686;SDS011;68002;52.310;6.990;2023-07-31T11:54:36;8.43;;;5.75;;
78686;SDS011;68002;52.310;6.990;2023-07-31T11:57:01;8.02;;;5.40;;
78686;SDS011;68002;52.310;6.990;2023-07-31T11:59:27;9.13;;;6.32;;
78686;SDS011;68002;52.310;6.990;2023-07-31T12:01:52;9.33;;;6.37;;
78686;SDS011;68002;52.310;6.990;2023-07-31T12:04:17;8.47;;;6.23;;
78686;SDS011;68002;52.310;6.990;2023-07-31T12:06:42;9.10;;;6.10;;
78686;SDS011;68002;52.310;6.990;2023-07-31T12:09:08;9.68;;;6.38;;
78686;SDS011;68002;52.310;6.990;2023-07-31T12:11:43;9.63;;;6.15;;
78686;SDS011;68002;52.310;6.990;2023-07-31T12:16:34;9.55;;;6.63;;
78686;SDS011;68002;52.310;6.990;2023-07-31T12:18:59;11.07;;;6.63;;
78686;SDS011;68002;52.310;6.990;2023-07-31T12:21:24;10.73;;;7.70;;
78686;SDS011;68002;52.310;6.990;2023-07-31T12:23:52;8.52;;;6.78;;
78686;SDS011;68002;52.310;6.990;2023-07-31T12:26:17;6.80;;;5.65;;
78686;SDS011;68002;52.310;6.990;2023-07-31T12:28:46;8.77;;;6.57;;
78686;SDS011;68002;52.310;6.990;2023-07-31T12:31:12;7.50;;;5.05;;
78686;SDS011;68002;52.310;6.990;2023-07-31T12:33:38;9.63;;;4.57;;
78686;SDS011;68002;52.310;6.990;2023-07-31T12:36:06;8.57;;;5.32;;
78686;SDS011;68002;52.310;6.990;2023-07-31T12:38:31;7.45;;;5.00;;
78686;SDS011;68002;52.310;6.990;2023-07-31T12:40:56;7.32;;;5.80;;
78686;SDS011;68002;52.310;6.990;2023-07-31T12:43:21;6.73;;;4.40;;
78686;SDS011;68002;52.310;6.990;2023-07-31T12:45:46;7.45;;;4.68;;
78686;SDS011;68002;52.310;6.990;2023-07-31T12:48:11;4.93;;;4.25;;
78686;SDS011;68002;52.310;6.990;2023-07-31T12:50:37;5.28;;;4.47;;
78686;SDS011;68002;52.310;6.990;2023-07-31T12:53:02;7.32;;;5.13;;
78686;SDS011;68002;52.310;6.990;2023-07-31T12:55:27;6.07;;;5.20;;
78686;SDS011;68002;52.310;6.990;2023-07-31T12:57:52;8.10;;;5.45;;
78686;SDS011;68002;52.310;6.990;2023-07-31T13:00:17;8.45;;;4.85;;
78686;SDS011;68002;52.310;6.990;2023-07-31T13:02:42;6.70;;;4.67;;
78686;SDS011;68002;52.310;6.990;2023-07-31T13:05:08;6.75;;;4.63;;
78686;SDS011;68002;52.310;6.990;2023-07-31T13:07:33;7.97;;;5.32;;
78686;SDS011;68002;52.310;6.990;2023-07-31T13:09:58;8.90;;;5.72;;
78686;SDS011;68002;52.310;6.990;2023-07-31T13:12:24;7.55;;;5.50;;
78686;SDS011;68002;52.310;6.990;2023-07-31T13:14:49;8.45;;;5.65;;
78686;SDS011;68002;52.310;6.990;2023-07-31T13:17:14;7.78;;;5.75;;
78686;SDS011;68002;52.310;6.990;2023-07-31T13:19:39;6.93;;;4.88;;
78686;SDS011;68002;52.310;6.990;2023-07-31T13:22:05;9.18;;;5.90;;
78686;SDS011;68002;52.310;6.990;2023-07-31T13:24:30;9.67;;;6.70;;
78686;SDS011;68002;52.310;6.990;2023-07-31T13:26:55;9.18;;;5.38;;
78686;SDS011;68002;52.310;6.990;2023-07-31T13:29:20;10.47;;;6.30;;
78686;SDS011;68002;52.310;6.990;2023-07-31T13:31:45;9.05;;;6.10;;
78686;SDS011;68002;52.310;6.990;2023-07-31T13:34:10;9.48;;;5.60;;
78686;SDS011;68002;52.310;6.990;2023-07-31T13:36:35;6.70;;;5.68;;
78686;SDS011;68002;52.310;6.990;2023-07-31T13:39:01;9.05;;;5.78;;
78686;SDS011;68002;52.310;6.990;2023-07-31T13:41:26;7.30;;;5.63;;
78686;SDS011;68002;52.310;6.990;2023-07-31T13:43:51;9.73;;;5.97;;
78686;SDS011;68002;52.310;6.990;2023-07-31T13:46:16;8.88;;;5.60;;
78686;SDS011;68002;52.310;6.990;2023-07-31T13:48:41;8.20;;;5.30;;
78686;SDS011;68002;52.310;6.990;2023-07-31T13:51:06;7.60;;;5.32;;
78686;SDS011;68002;52.310;6.990;2023-07-31T13:53:31;9.00;;;5.50;;
78686;SDS011;68002;52.310;6.990;2023-07-31T13:55:57;8.20;;;5.05;;
78686;SDS011;68002;52.310;6.990;2023-07-31T13:58:22;7.95;;;5.25;;
78686;SDS011;68002;52.310;6.990;2023-07-31T14:00:47;8.93;;;5.18;;
78686;SDS011;68002;52.310;6.990;2023-07-31T14:03:12;7.15;;;4.93;;
78686;SDS011;68002;52.310;6.990;2023-07-31T14:05:37;7.93;;;5.37;;
78686;SDS011;68002;52.310;6.990;2023-07-31T14:08:02;6.93;;;5.03;;
78686;SDS011;68002;52.310;6.990;2023-07-31T14:10:27;6.83;;;4.43;;
78686;SDS011;68002;52.310;6.990;2023-07-31T14:12:53;7.45;;;4.88;;
78686;SDS011;68002;52.310;6.990;2023-07-31T14:15:18;9.05;;;5.70;;
78686;SDS011;68002;52.310;6.990;2023-07-31T14:17:43;6.85;;;4.72;;
78686;SDS011;68002;52.310;6.990;2023-07-31T14:20:08;7.95;;;5.45;;
78686;SDS011;68002;52.310;6.990;2023-07-31T14:22:34;8.00;;;5.53;;
78686;SDS011;68002;52.310;6.990;2023-07-31T14:24:59;6.88;;;5.03;;
78686;SDS011;68002;52.310;6.990;2023-07-31T14:27:24;7.20;;;5.15;;
78686;SDS011;68002;52.310;6.990;2023-07-31T14:29:49;6.40;;;4.80;;
78686;SDS011;68002;52.310;6.990;2023-07-31T14:32:14;7.30;;;5.00;;
78686;SDS011;68002;52.310;6.990;2023-07-31T14:34:40;7.13;;;4.43;;
78686;SDS011;68002;52.310;6.990;2023-07-31T14:37:05;8.07;;;4.68;;
78686;SDS011;68002;52.310;6.990;2023-07-31T14:39:30;7.77;;;5.10;;
78686;SDS011;68002;52.310;6.990;2023-07-31T14:41:55;6.88;;;4.43;;
78686;SDS011;68002;52.310;6.990;2023-07-31T14:44:20;6.68;;;4.43;;
78686;SDS011;68002;52.310;6.990;2023-07-31T14:46:45;8.85;;;4.53;;
78686;SDS011;68002;52.310;6.990;2023-07-31T14:49:11;7.43;;;4.50;;
78686;SDS011;68002;52.310;6.990;2023-07-31T14:51:36;6.50;;;4.10;;